Time;durP1;ratioP1;P1;durP2;ratioP2;P2;SDS_P1;SDS_P2;PMS_P1;PMS_P2;Temp;Humidity;BMP_temperature;BMP_pressure;BME280_temperature;BME280_humidity;BME280_pressure;Samples;Min_cycle;Max_cycle;Signal;HPM_P1;HPM_P2
2023/05/18 00:01:21;;;;;;;11.20;5.20;;;10.50;1.00;;;;;;5009079;28;20506;-75
2023/05/18 00:03:48;;;;;;;6.23;2.13;;;10.50;1.00;;;;;;5018618;28;20462;-76
2023/05/18 00:06:16;;;;;;;6.20;2.27;;;10.40;1.00;;;;;;5031038;28;20905;-76
2023/05/18 00:08:44;;;;;;;6.57;2.80;;;10.40;1.00;;;;;;5020709;28;20820;-76
2023/05/18 00:11:11;;;;;;;8.73;2.23;;;10.40;1.00;;;;;;5011167;28;20478;-75
2023/05/18 00:13:38;;;;;;;3.80;2.60;;;10.40;1.00;;;;;;5021101;28;20461;-76
2023/05/18 00:16:05;;;;;;;4.93;2.30;;;10.40;1.00;;;;;;5015583;28;20533;-75
2023/05/18 00:18:33;;;;;;;5.50;2.40;;;10.40;1.00;;;;;;5005090;28;20938;-75
2023/05/18 00:21:00;;;;;;;7.70;2.90;;;10.40;1.00;;;;;;5009196;28;20557;-76
2023/05/18 00:23:28;;;;;;;6.00;2.60;;;10.40;1.00;;;;;;5017835;28;21218;-76
2023/05/18 00:25:57;;;;;;;7.00;3.47;;;10.30;1.00;;;;;;5018161;28;20465;-76
2023/05/18 00:28:24;;;;;;;5.93;2.30;;;10.30;1.00;;;;;;5011967;28;20470;-76
2023/05/18 00:30:51;;;;;;;7.43;3.40;;;10.30;1.00;;;;;;5010676;28;20557;-76
2023/05/18 00:33:18;;;;;;;4.40;3.00;;;10.30;1.00;;;;;;5020192;28;20458;-76
2023/05/18 00:35:45;;;;;;;8.33;3.30;;;10.20;1.00;;;;;;5023411;28;20547;-76
2023/05/18 00:38:14;;;;;;;9.20;3.30;;;10.20;1.00;;;;;;5008836;28;20542;-76
2023/05/18 00:40:41;;;;;;;7.80;2.40;;;10.20;1.00;;;;;;5009685;28;20479;-76
2023/05/18 00:43:09;;;;;;;5.23;2.73;;;10.20;1.00;;;;;;5019526;28;20445;-76
2023/05/18 00:45:36;;;;;;;4.50;1.87;;;10.20;1.00;;;;;;5016479;28;20525;-75
2023/05/18 00:48:03;;;;;;;6.97;2.40;;;10.20;1.00;;;;;;5021076;28;20484;-76
2023/05/18 00:50:30;;;;;;;6.87;2.43;;;10.20;1.00;;;;;;5010153;28;20498;-76
2023/05/18 00:52:57;;;;;;;10.80;3.70;;;10.10;1.00;;;;;;5010322;28;20542;-75
2023/05/18 00:55:26;;;;;;;6.93;3.50;;;10.10;1.00;;;;;;5015371;28;20465;-75
2023/05/18 00:57:55;;;;;;;8.67;3.50;;;10.10;1.00;;;;;;5017779;28;21008;-76
2023/05/18 01:00:23;;;;;;;4.20;2.57;;;10.10;1.00;;;;;;5007310;28;20496;-75
2023/05/18 01:02:51;;;;;;;4.83;3.00;;;10.10;1.00;;;;;;5015228;23;21104;-71
2023/05/18 01:05:20;;;;;;;4.07;2.60;;;10.10;1.00;;;;;;4998328;28;21094;-71
2023/05/18 01:07:49;;;;;;;4.77;3.10;;;10.10;1.00;;;;;;5001946;28;20454;-71
2023/05/18 01:10:18;;;;;;;5.90;2.43;;;10.10;1.00;;;;;;5004433;28;20560;-71
2023/05/18 01:12:50;;;;;;;8.40;2.90;;;10.10;1.00;;;;;;4996398;28;20470;-71
2023/05/18 01:15:20;;;;;;;6.63;2.93;;;10.00;1.00;;;;;;4996452;28;22431;-71
2023/05/18 01:18:05;;;;;;;7.00;2.40;;;10.00;1.00;;;;;;5000086;28;20471;-71
2023/05/18 01:20:37;;;;;;;6.60;2.00;;;10.00;1.00;;;;;;4996445;28;20498;-71
2023/05/18 01:23:53;;;;;;;5.20;2.53;;;10.00;1.00;;;;;;5002170;28;20481;-71
2023/05/18 01:26:28;;;;;;;6.30;2.63;;;10.00;1.00;;;;;;4935923;28;20494;-72
2023/05/18 01:28:57;;;;;;;5.90;2.20;;;9.90;1.00;;;;;;4990184;28;20458;-71
2023/05/18 01:31:23;;;;;;;5.40;1.83;;;9.90;1.00;;;;;;5004555;28;20524;-70
2023/05/18 01:33:50;;;;;;;6.10;2.60;;;9.90;1.00;;;;;;5003917;28;20906;-71
2023/05/18 01:36:17;;;;;;;4.13;1.73;;;10.00;1.00;;;;;;5004606;28;20474;-70
2023/05/18 01:38:45;;;;;;;10.17;2.37;;;10.00;1.00;;;;;;5000638;28;20462;-71
2023/05/18 01:41:16;;;;;;;6.17;2.70;;;10.00;1.00;;;;;;5000144;28;20574;-71
2023/05/18 01:43:52;;;;;;;7.27;2.63;;;10.10;1.00;;;;;;5005430;28;20490;-71
2023/05/18 01:46:29;;;;;;;3.83;1.90;;;10.10;1.00;;;;;;5002056;28;20493;-72
2023/05/18 01:49:00;;;;;;;4.17;2.20;;;10.10;1.00;;;;;;5004400;28;20909;-71
2023/05/18 01:51:32;;;;;;;12.10;2.77;;;10.20;1.00;;;;;;5003103;28;20464;-71
2023/05/18 01:54:05;;;;;;;6.17;2.60;;;10.20;1.00;;;;;;5004553;28;20485;-70
2023/05/18 01:56:33;;;;;;;6.30;2.90;;;10.20;1.00;;;;;;5000042;28;21479;-71
2023/05/18 01:59:03;;;;;;;4.73;2.00;;;10.10;1.00;;;;;;5001933;28;20463;-70
2023/05/18 02:01:30;;;;;;;8.00;2.70;;;10.10;1.00;;;;;;5002592;28;20463;-70
2023/05/18 02:03:57;;;;;;;5.87;2.13;;;10.20;1.00;;;;;;5002171;28;20459;-71
2023/05/18 02:06:24;;;;;;;5.70;2.43;;;10.20;1.00;;;;;;5002113;28;20454;-71
2023/05/18 02:08:51;;;;;;;11.70;2.70;;;10.20;1.00;;;;;;5001248;28;20490;-70
2023/05/18 02:11:18;;;;;;;5.73;3.20;;;10.10;1.00;;;;;;4999151;28;20564;-71
2023/05/18 02:13:45;;;;;;;6.20;2.23;;;10.20;1.00;;;;;;5003309;28;20463;-72
2023/05/18 02:16:13;;;;;;;7.30;2.60;;;10.10;1.00;;;;;;4998601;28;20467;-71
2023/05/18 02:18:41;;;;;;;9.10;3.03;;;10.10;1.00;;;;;;5005441;28;20490;-71
2023/05/18 02:21:09;;;;;;;4.83;2.27;;;10.10;1.00;;;;;;5003855;28;20477;-72
2023/05/18 02:23:36;;;;;;;6.13;2.93;;;10.00;1.00;;;;;;4998514;28;20552;-71
2023/05/18 02:26:02;;;;;;;4.40;2.10;;;9.90;1.00;;;;;;5001356;28;20478;-71
2023/05/18 02:28:30;;;;;;;5.83;2.30;;;9.90;1.00;;;;;;5000381;28;20443;-71
2023/05/18 02:31:05;;;;;;;6.23;2.30;;;9.90;1.00;;;;;;4995510;28;20477;-72
2023/05/18 02:33:38;;;;;;;8.07;2.60;;;9.80;1.00;;;;;;4995645;28;20905;-71
2023/05/18 02:36:09;;;;;;;9.30;3.57;;;9.80;1.00;;;;;;4996967;28;20969;-71
2023/05/18 02:38:40;;;;;;;5.27;2.70;;;9.80;1.00;;;;;;5001471;28;20483;-70
2023/05/18 02:41:08;;;;;;;5.80;2.10;;;9.70;1.00;;;;;;5002200;28;20448;-71
2023/05/18 02:43:35;;;;;;;4.93;2.93;;;9.70;1.00;;;;;;5004806;28;20494;-72
2023/05/18 02:46:02;;;;;;;7.87;2.87;;;9.60;1.00;;;;;;5004171;28;20465;-71
2023/05/18 02:48:29;;;;;;;7.47;3.13;;;9.60;1.00;;;;;;5005350;28;20450;-71
2023/05/18 02:50:58;;;;;;;5.33;3.00;;;9.50;1.00;;;;;;5003410;28;20469;-70
2023/05/18 02:53:27;;;;;;;6.83;2.60;;;9.40;1.00;;;;;;5000548;28;20459;-71
2023/05/18 02:55:56;;;;;;;5.83;2.83;;;9.40;1.00;;;;;;5000371;28;20535;-71
2023/05/18 02:58:24;;;;;;;6.70;3.30;;;9.40;1.00;;;;;;5001389;28;20456;-70
2023/05/18 03:00:53;;;;;;;5.70;2.40;;;9.40;1.00;;;;;;5002833;28;20474;-71
2023/05/18 03:03:22;;;;;;;4.23;2.40;;;9.40;1.00;;;;;;5002828;28;20529;-70
2023/05/18 03:05:51;;;;;;;8.80;2.87;;;9.40;1.00;;;;;;5001554;28;21230;-70
2023/05/18 03:08:20;;;;;;;5.97;2.53;;;9.40;1.00;;;;;;4999729;28;20463;-70
2023/05/18 03:10:46;;;;;;;6.17;2.50;;;9.30;1.00;;;;;;5002918;28;20593;-71
2023/05/18 03:13:13;;;;;;;5.67;2.93;;;9.30;1.00;;;;;;4995531;28;20565;-71
2023/05/18 03:15:41;;;;;;;7.63;2.70;;;9.30;1.00;;;;;;5000424;28;20596;-70
2023/05/18 03:18:08;;;;;;;5.50;2.53;;;9.20;1.00;;;;;;5003658;28;20878;-70
2023/05/18 03:20:36;;;;;;;5.07;2.37;;;9.20;1.00;;;;;;5006250;28;21017;-70
2023/05/18 03:23:06;;;;;;;4.57;2.60;;;9.20;1.00;;;;;;5002216;28;20470;-71
2023/05/18 03:25:36;;;;;;;7.70;2.53;;;9.20;1.00;;;;;;5000729;28;20557;-71
2023/05/18 03:28:03;;;;;;;5.90;2.33;;;9.20;1.00;;;;;;5006572;28;20567;-70
2023/05/18 03:30:33;;;;;;;9.47;2.77;;;9.20;1.00;;;;;;5006449;28;20481;-71
2023/05/18 03:33:00;;;;;;;6.37;2.60;;;9.20;1.00;;;;;;5009094;28;20462;-71
2023/05/18 03:35:28;;;;;;;6.80;3.30;;;9.20;1.00;;;;;;5003578;28;20442;-71
2023/05/18 03:37:55;;;;;;;5.43;2.40;;;9.10;1.00;;;;;;5003863;28;20878;-70
2023/05/18 03:40:23;;;;;;;12.13;2.80;;;9.10;1.00;;;;;;5004342;28;20553;-70
2023/05/18 03:42:51;;;;;;;8.30;2.87;;;9.10;1.00;;;;;;5005368;28;20544;-71
2023/05/18 03:45:18;;;;;;;3.70;2.00;;;9.10;1.00;;;;;;5003349;28;20463;-71
2023/05/18 03:47:46;;;;;;;3.53;2.10;;;9.10;1.00;;;;;;4997402;28;20522;-72
2023/05/18 03:50:13;;;;;;;3.70;2.80;;;9.00;1.00;;;;;;5005775;28;20485;-72
2023/05/18 03:52:40;;;;;;;5.70;2.60;;;9.10;1.00;;;;;;5003205;28;21212;-72
2023/05/18 03:55:07;;;;;;;8.30;2.97;;;9.10;1.00;;;;;;5002958;28;25540;-73
2023/05/18 03:57:35;;;;;;;6.30;2.70;;;9.10;1.00;;;;;;5002944;28;20562;-72
2023/05/18 04:00:06;;;;;;;6.80;3.10;;;9.10;1.00;;;;;;5003099;28;20510;-71
2023/05/18 04:02:36;;;;;;;3.30;2.10;;;9.10;1.00;;;;;;4999245;28;20470;-71
2023/05/18 04:05:04;;;;;;;6.00;2.40;;;9.00;1.00;;;;;;4998898;28;20536;-71
2023/05/18 04:07:31;;;;;;;4.80;2.17;;;9.00;1.00;;;;;;5003858;28;20461;-73
2023/05/18 04:09:58;;;;;;;5.23;2.80;;;9.10;1.00;;;;;;5001845;28;20553;-72
2023/05/18 04:12:25;;;;;;;8.90;2.63;;;9.10;1.00;;;;;;5000582;28;20436;-71
2023/05/18 04:14:53;;;;;;;4.17;2.30;;;9.10;1.00;;;;;;5006811;28;20477;-74
2023/05/18 04:17:21;;;;;;;8.57;2.17;;;9.10;1.00;;;;;;5002575;28;20467;-73
2023/05/18 04:19:49;;;;;;;7.10;3.47;;;9.20;1.00;;;;;;5001882;28;20470;-72
2023/05/18 04:22:17;;;;;;;5.53;2.10;;;9.20;1.00;;;;;;4999166;28;20826;-72
2023/05/18 04:24:46;;;;;;;8.97;3.43;;;9.20;1.00;;;;;;5001153;28;20447;-73
2023/05/18 04:27:13;;;;;;;5.03;2.90;;;9.20;1.00;;;;;;4998549;28;20423;-73
2023/05/18 04:29:42;;;;;;;5.30;1.80;;;9.20;1.00;;;;;;5000796;28;22085;-73
2023/05/18 04:32:09;;;;;;;6.97;2.80;;;9.20;1.00;;;;;;5001283;28;21385;-72
2023/05/18 04:34:38;;;;;;;6.13;2.77;;;9.30;1.00;;;;;;5003614;28;20514;-73
2023/05/18 04:37:05;;;;;;;9.30;2.57;;;9.30;1.00;;;;;;5004355;28;21032;-73
2023/05/18 04:39:33;;;;;;;9.67;3.67;;;9.30;1.00;;;;;;5003317;28;21153;-72
2023/05/18 04:42:03;;;;;;;6.73;3.40;;;9.30;1.00;;;;;;5001476;28;20588;-73
2023/05/18 04:44:32;;;;;;;8.47;3.07;;;9.40;1.00;;;;;;5004720;28;20486;-72
2023/05/18 04:47:00;;;;;;;6.90;2.53;;;9.40;1.00;;;;;;5003267;28;20517;-72
2023/05/18 04:49:27;;;;;;;5.73;2.60;;;9.50;1.00;;;;;;5002638;28;21838;-72
2023/05/18 04:51:57;;;;;;;4.40;2.20;;;9.50;1.00;;;;;;5006671;28;20573;-72
2023/05/18 04:54:25;;;;;;;6.67;2.70;;;9.60;1.00;;;;;;5004557;28;21309;-72
2023/05/18 04:56:52;;;;;;;5.83;2.40;;;9.60;1.00;;;;;;5004406;28;20487;-72
2023/05/18 04:59:24;;;;;;;5.17;2.73;;;9.70;1.00;;;;;;5000312;28;20584;-72
2023/05/18 05:01:52;;;;;;;8.37;2.23;;;9.70;1.00;;;;;;5003822;28;20462;-71
2023/05/18 05:04:21;;;;;;;4.90;3.00;;;9.80;1.00;;;;;;4997296;28;20546;-73
2023/05/18 05:06:48;;;;;;;6.63;2.87;;;9.90;1.00;;;;;;5001713;28;21158;-71
2023/05/18 05:09:16;;;;;;;6.17;2.10;;;9.90;1.00;;;;;;5004147;28;20935;-72
2023/05/18 05:11:43;;;;;;;4.60;2.10;;;10.00;1.00;;;;;;5003250;28;20545;-72
2023/05/18 05:14:11;;;;;;;7.80;2.87;;;10.10;1.00;;;;;;5002687;28;20585;-72
2023/05/18 05:16:38;;;;;;;10.23;2.73;;;10.10;1.00;;;;;;4997094;28;20550;-72
2023/05/18 05:19:05;;;;;;;7.10;2.63;;;10.20;1.00;;;;;;5002733;28;20469;-74
2023/05/18 05:21:32;;;;;;;4.33;2.50;;;10.40;1.00;;;;;;5000705;28;20459;-72
2023/05/18 05:24:00;;;;;;;6.03;2.70;;;10.50;1.00;;;;;;5003324;28;20462;-71
2023/05/18 05:26:28;;;;;;;5.00;2.20;;;10.60;1.00;;;;;;5001615;28;20469;-71
2023/05/18 05:28:55;;;;;;;4.57;3.50;;;10.70;1.00;;;;;;5009279;28;20492;-71
2023/05/18 05:31:22;;;;;;;8.33;3.00;;;10.70;1.00;;;;;;5005841;28;20516;-72
2023/05/18 05:33:49;;;;;;;5.13;2.53;;;10.80;1.00;;;;;;5008587;28;20520;-71
2023/05/18 05:36:16;;;;;;;7.10;2.90;;;10.90;1.00;;;;;;5009100;28;20458;-71
2023/05/18 05:38:43;;;;;;;6.77;2.57;;;10.90;1.00;;;;;;4998908;28;20478;-70
2023/05/18 05:41:10;;;;;;;6.70;2.87;;;11.00;1.00;;;;;;5003113;28;20541;-71
2023/05/18 05:43:38;;;;;;;7.43;2.50;;;11.10;1.00;;;;;;5000867;28;20462;-72
2023/05/18 05:46:05;;;;;;;5.30;3.00;;;11.10;1.00;;;;;;4998719;28;20479;-72
2023/05/18 05:48:32;;;;;;;8.70;3.30;;;11.20;1.00;;;;;;5005380;28;20474;-71
2023/05/18 05:50:59;;;;;;;6.03;2.50;;;11.30;1.00;;;;;;5000969;28;20550;-71
2023/05/18 05:53:28;;;;;;;5.40;2.33;;;11.40;1.00;;;;;;5005142;28;20450;-72
2023/05/18 05:55:55;;;;;;;6.97;2.80;;;11.50;1.00;;;;;;5003262;28;20518;-71
2023/05/18 05:58:22;;;;;;;7.17;3.10;;;11.60;1.00;;;;;;5002004;28;21345;-71
2023/05/18 06:00:51;;;;;;;7.83;2.60;;;11.80;1.00;;;;;;5002688;28;21053;-72
2023/05/18 06:03:18;;;;;;;8.07;2.80;;;11.90;1.00;;;;;;4992367;28;20904;-71
2023/05/18 06:05:44;;;;;;;9.10;2.90;;;12.10;1.00;;;;;;5001379;28;20986;-71
2023/05/18 06:08:12;;;;;;;10.37;4.07;;;12.20;1.00;;;;;;4999203;28;20458;-72
2023/05/18 06:10:40;;;;;;;8.83;3.47;;;12.20;1.00;;;;;;5004702;28;20961;-72
2023/05/18 06:13:07;;;;;;;8.80;2.83;;;12.30;1.00;;;;;;5000660;28;20514;-73
2023/05/18 06:15:34;;;;;;;5.13;2.50;;;12.20;1.00;;;;;;5001761;28;21015;-72
2023/05/18 06:18:02;;;;;;;7.67;2.90;;;12.30;1.00;;;;;;4995163;28;20517;-70
2023/05/18 06:20:29;;;;;;;6.70;2.97;;;12.20;1.00;;;;;;5002651;28;20470;-71
2023/05/18 06:22:59;;;;;;;6.33;2.57;;;12.40;1.00;;;;;;5001849;28;20459;-70
2023/05/18 06:25:26;;;;;;;6.37;2.47;;;12.40;1.00;;;;;;4995473;28;20447;-70
2023/05/18 06:27:53;;;;;;;6.83;2.10;;;12.50;1.00;;;;;;5005757;28;20566;-70
2023/05/18 06:30:20;;;;;;;8.73;4.00;;;12.60;1.00;;;;;;5005794;28;20497;-71
2023/05/18 06:32:47;;;;;;;6.90;2.77;;;12.70;1.00;;;;;;5001021;28;20472;-70
2023/05/18 06:35:15;;;;;;;9.70;3.30;;;12.80;1.00;;;;;;5001445;28;20573;-70
2023/05/18 06:37:42;;;;;;;6.50;2.40;;;12.90;1.00;;;;;;4998995;28;20520;-70
2023/05/18 06:40:10;;;;;;;6.30;2.60;;;13.00;1.00;;;;;;4999412;28;21027;-70
2023/05/18 06:42:37;;;;;;;11.60;2.90;;;13.10;1.00;;;;;;4999215;28;20475;-71
2023/05/18 06:45:05;;;;;;;10.50;3.10;;;13.00;1.00;;;;;;4999198;28;20472;-71
2023/05/18 06:47:32;;;;;;;9.60;2.43;;;12.90;1.00;;;;;;4997337;28;20607;-70
2023/05/18 06:49:58;;;;;;;9.10;2.77;;;12.70;1.00;;;;;;4992001;28;21380;-71
2023/05/18 06:52:27;;;;;;;5.40;2.80;;;12.80;1.00;;;;;;4996322;28;22023;-71
2023/05/18 06:54:54;;;;;;;5.50;2.60;;;13.00;1.00;;;;;;5006665;28;20980;-71
2023/05/18 06:57:21;;;;;;;8.97;2.80;;;13.10;1.00;;;;;;5002032;28;20546;-70
2023/05/18 06:59:52;;;;;;;5.60;2.60;;;13.10;1.00;;;;;;5003925;28;20463;-70
2023/05/18 07:02:20;;;;;;;6.03;2.47;;;13.00;1.00;;;;;;5003933;28;20471;-70
2023/05/18 07:04:48;;;;;;;5.93;2.50;;;12.90;1.00;;;;;;5003179;28;20496;-70
2023/05/18 07:07:15;;;;;;;8.90;3.03;;;12.90;1.00;;;;;;5002709;28;20676;-70
2023/05/18 07:09:48;;;;;;;8.40;3.37;;;13.00;1.00;;;;;;5005558;28;20469;-70
2023/05/18 07:12:15;;;;;;;5.97;2.47;;;13.00;1.00;;;;;;5000966;28;20470;-70
2023/05/18 07:14:42;;;;;;;8.20;3.83;;;12.80;1.00;;;;;;5005065;28;20601;-72
2023/05/18 07:17:09;;;;;;;8.27;2.87;;;12.60;1.00;;;;;;5006751;28;20511;-72
2023/05/18 07:19:36;;;;;;;7.00;2.53;;;12.80;1.00;;;;;;5009033;28;20557;-72
2023/05/18 07:22:04;;;;;;;7.17;2.63;;;13.00;1.00;;;;;;5006436;28;20498;-72
2023/05/18 07:24:31;;;;;;;6.30;2.47;;;13.20;1.00;;;;;;5007037;28;20471;-71
2023/05/18 07:26:59;;;;;;;8.27;3.47;;;13.40;1.00;;;;;;5004871;28;21227;-70
2023/05/18 07:29:26;;;;;;;11.30;3.90;;;13.60;1.00;;;;;;5004852;28;20941;-71
2023/05/18 07:31:53;;;;;;;4.87;2.60;;;13.70;1.00;;;;;;5011562;28;20504;-70
2023/05/18 07:34:20;;;;;;;4.10;2.13;;;13.90;1.00;;;;;;5006211;28;20500;-72
2023/05/18 07:36:47;;;;;;;4.17;2.10;;;13.90;1.00;;;;;;5011536;28;20552;-72
2023/05/18 07:39:17;;;;;;;8.90;2.30;;;13.90;1.00;;;;;;5006881;28;20491;-71
2023/05/18 07:41:44;;;;;;;8.23;3.00;;;14.00;1.00;;;;;;5006620;28;20860;-71
2023/05/18 07:44:13;;;;;;;6.83;2.70;;;14.00;1.00;;;;;;5004677;28;20513;-71
2023/05/18 07:46:40;;;;;;;4.70;2.17;;;14.10;1.00;;;;;;5005254;28;20894;-71
2023/05/18 07:49:07;;;;;;;4.70;1.83;;;14.10;1.00;;;;;;5006136;28;20485;-71
2023/05/18 07:51:34;;;;;;;4.40;2.50;;;14.10;1.00;;;;;;5008585;28;20544;-71
2023/05/18 07:54:01;;;;;;;6.97;2.87;;;14.10;1.00;;;;;;5003887;28;20494;-71
2023/05/18 07:56:29;;;;;;;6.70;2.13;;;14.10;1.00;;;;;;5006937;28;20520;-71
2023/05/18 07:58:56;;;;;;;4.90;2.77;;;14.30;1.00;;;;;;5002157;28;20468;-71
2023/05/18 08:01:26;;;;;;;6.00;2.87;;;14.50;1.00;;;;;;5004521;28;20461;-72
2023/05/18 08:03:53;;;;;;;3.23;2.60;;;14.80;1.00;;;;;;5003999;28;20959;-70
2023/05/18 08:06:20;;;;;;;4.83;2.50;;;15.10;1.00;;;;;;5005693;28;20978;-70
2023/05/18 08:08:47;;;;;;;7.73;2.40;;;15.40;1.00;;;;;;5008699;28;20568;-71
2023/05/18 08:11:14;;;;;;;5.57;2.63;;;15.60;1.00;;;;;;5007045;28;20459;-73
2023/05/18 08:13:41;;;;;;;8.13;3.93;;;15.80;1.00;;;;;;5004755;28;20465;-70
2023/05/18 08:16:08;;;;;;;5.80;2.63;;;15.80;1.00;;;;;;5006591;28;20570;-70
2023/05/18 08:18:36;;;;;;;6.03;2.33;;;15.90;1.00;;;;;;5005045;28;20450;-70
2023/05/18 08:21:06;;;;;;;4.33;2.23;;;16.00;1.00;;;;;;5004547;28;20549;-71
2023/05/18 08:23:33;;;;;;;4.77;1.90;;;16.10;1.00;;;;;;5005000;28;20566;-71
2023/05/18 08:26:02;;;;;;;4.43;1.87;;;16.20;1.00;;;;;;5010583;28;20569;-71
2023/05/18 08:28:29;;;;;;;5.67;2.50;;;16.40;1.00;;;;;;5003648;28;20446;-71
2023/05/18 08:30:56;;;;;;;5.10;2.10;;;16.60;1.00;;;;;;5001862;28;20576;-71
2023/05/18 08:33:23;;;;;;;2.07;1.50;;;17.00;1.00;;;;;;5013756;28;21215;-73
2023/05/18 08:35:51;;;;;;;4.80;2.40;;;17.40;1.00;;;;;;5004280;28;20473;-71
2023/05/18 08:38:19;;;;;;;9.53;2.47;;;17.60;1.00;;;;;;5008306;28;20541;-71
2023/05/18 08:40:53;;;;;;;7.10;2.50;;;17.70;1.00;;;;;;5005663;28;20960;-72
2023/05/18 08:43:26;;;;;;;5.17;1.90;;;17.90;1.00;;;;;;5007813;28;20486;-71
2023/05/18 08:46:01;;;;;;;5.90;2.67;;;18.00;1.00;;;;;;5008448;28;20482;-71
2023/05/18 08:48:31;;;;;;;11.23;3.20;;;17.90;1.00;;;;;;5000462;28;20464;-72
2023/05/18 08:51:03;;;;;;;7.53;3.17;;;17.70;1.00;;;;;;5002782;28;20473;-71
2023/05/18 08:53:32;;;;;;;4.60;2.17;;;17.70;1.00;;;;;;5006787;28;20912;-71
2023/05/18 08:56:01;;;;;;;5.17;2.00;;;17.70;1.00;;;;;;5003946;28;20485;-71
2023/05/18 08:58:35;;;;;;;5.90;2.37;;;17.70;1.00;;;;;;5003726;28;21449;-71
2023/05/18 09:01:02;;;;;;;9.63;8.80;;;17.70;1.00;;;;;;5009585;28;20483;-71
2023/05/18 09:03:30;;;;;;;4.13;2.13;;;17.90;1.00;;;;;;5002424;28;20508;-72
2023/05/18 09:06:02;;;;;;;3.23;1.67;;;18.00;1.00;;;;;;5007045;28;20470;-71
2023/05/18 09:08:30;;;;;;;3.43;2.50;;;17.80;1.00;;;;;;5000499;28;20463;-71
2023/05/18 09:10:58;;;;;;;3.63;2.20;;;17.70;1.00;;;;;;5004768;28;20913;-70
2023/05/18 09:13:25;;;;;;;7.77;3.40;;;17.60;1.00;;;;;;4999369;28;20478;-71
2023/05/18 09:15:52;;;;;;;7.73;3.37;;;17.60;1.00;;;;;;4999579;28;21306;-71
2023/05/18 09:18:20;;;;;;;7.63;3.10;;;17.50;1.00;;;;;;5006308;28;20466;-71
2023/05/18 09:20:47;;;;;;;6.50;2.40;;;17.30;1.00;;;;;;5005365;28;20552;-71
2023/05/18 09:23:18;;;;;;;7.23;3.30;;;17.20;1.00;;;;;;5005819;28;20550;-74
2023/05/18 09:25:48;;;;;;;3.53;2.10;;;17.30;1.00;;;;;;5005393;28;20515;-73
2023/05/18 09:28:26;;;;;;;5.60;2.87;;;17.20;1.00;;;;;;5003542;28;21922;-71
2023/05/18 09:30:53;;;;;;;7.70;2.40;;;17.30;1.00;;;;;;5004140;28;20951;-72
2023/05/18 09:33:22;;;;;;;9.57;3.17;;;17.50;1.00;;;;;;5006446;28;21022;-72
2023/05/18 09:35:50;;;;;;;4.93;2.40;;;17.70;1.00;;;;;;5004516;28;20478;-72
2023/05/18 09:38:22;;;;;;;6.00;2.10;;;17.70;1.00;;;;;;5008055;28;20553;-71
2023/05/18 09:40:50;;;;;;;4.83;3.60;;;17.80;1.00;;;;;;5004597;28;20516;-71
2023/05/18 09:43:18;;;;;;;7.50;2.67;;;17.90;1.00;;;;;;5004500;28;20548;-71
2023/05/18 09:45:47;;;;;;;5.70;2.40;;;18.00;1.00;;;;;;5004442;28;20464;-71
2023/05/18 09:48:14;;;;;;;5.03;1.87;;;18.00;1.00;;;;;;5004847;28;20528;-72
2023/05/18 09:50:43;;;;;;;3.87;2.60;;;17.90;1.00;;;;;;5003785;28;20495;-70
2023/05/18 09:53:10;;;;;;;5.30;2.53;;;18.00;1.00;;;;;;5003652;28;20511;-70
2023/05/18 09:55:45;;;;;;;6.13;3.13;;;18.50;1.00;;;;;;5003375;28;20532;-71
2023/05/18 09:58:12;;;;;;;3.60;2.33;;;20.70;1.00;;;;;;5003898;28;20543;-70
2023/05/18 10:00:42;;;;;;;5.97;2.70;;;21.30;1.00;;;;;;5004910;28;20577;-71
2023/05/18 10:03:17;;;;;;;5.77;2.50;;;21.00;1.00;;;;;;5001029;28;21013;-71
2023/05/18 10:05:44;;;;;;;4.80;2.07;;;20.30;1.00;;;;;;5005836;28;20473;-72
2023/05/18 10:08:13;;;;;;;4.87;1.80;;;19.80;1.00;;;;;;5006408;28;20475;-71
2023/05/18 10:10:44;;;;;;;5.63;2.10;;;19.30;1.00;;;;;;5004506;28;20549;-71
2023/05/18 10:13:16;;;;;;;6.80;2.83;;;19.00;1.00;;;;;;5004610;28;20477;-71
2023/05/18 10:15:54;;;;;;;7.20;3.43;;;18.50;1.00;;;;;;5005739;28;20476;-71
2023/05/18 10:18:23;;;;;;;5.33;2.00;;;18.30;1.00;;;;;;5003771;28;20478;-71
2023/05/18 10:20:51;;;;;;;4.60;2.27;;;18.40;1.00;;;;;;5004306;28;20497;-72
2023/05/18 10:23:19;;;;;;;4.57;2.30;;;18.40;1.00;;;;;;5006513;28;20519;-71
2023/05/18 10:25:49;;;;;;;4.40;2.10;;;18.90;1.00;;;;;;5006544;28;20550;-71
2023/05/18 10:28:24;;;;;;;7.70;2.47;;;21.30;1.00;;;;;;5004463;28;20567;-71
2023/05/18 10:30:54;;;;;;;3.50;1.83;;;23.50;1.00;;;;;;5006170;28;20468;-71
2023/05/18 10:33:23;;;;;;;5.03;2.73;;;23.40;1.00;;;;;;5001376;28;20886;-71
2023/05/18 10:35:50;;;;;;;12.93;11.80;;;22.60;1.00;;;;;;5007059;28;20487;-71
2023/05/18 10:38:23;;;;;;;5.10;2.60;;;21.80;1.00;;;;;;5000804;28;20469;-71
2023/05/18 10:40:53;;;;;;;4.63;2.00;;;21.20;1.00;;;;;;5004553;28;20837;-70
2023/05/18 10:43:22;;;;;;;4.37;1.90;;;20.50;1.00;;;;;;5003982;28;21013;-71
2023/05/18 10:45:53;;;;;;;4.17;2.20;;;19.80;1.00;;;;;;5007020;28;20929;-70
2023/05/18 10:48:21;;;;;;;4.47;2.33;;;19.60;1.00;;;;;;5004517;28;20952;-70
2023/05/18 10:50:49;;;;;;;6.50;2.13;;;19.80;1.00;;;;;;5006610;28;21000;-71
2023/05/18 10:53:19;;;;;;;4.53;2.30;;;19.70;1.00;;;;;;5008165;28;20545;-72
2023/05/18 10:55:47;;;;;;;2.73;1.73;;;20.00;1.00;;;;;;5003111;28;20477;-70
2023/05/18 10:58:18;;;;;;;3.57;1.90;;;21.50;1.00;;;;;;5004723;28;20463;-71
2023/05/18 11:00:48;;;;;;;3.80;1.90;;;23.90;1.00;;;;;;5004926;28;20959;-72
2023/05/18 11:03:17;;;;;;;4.50;1.73;;;26.30;1.00;;;;;;5008334;28;20474;-72
2023/05/18 11:05:48;;;;;;;3.33;1.43;;;26.80;1.00;;;;;;5004522;28;20524;-71
2023/05/18 11:08:25;;;;;;;2.90;1.90;;;25.40;1.00;;;;;;5003116;28;20468;-71
2023/05/18 11:11:00;;;;;;;4.67;2.10;;;24.30;1.00;;;;;;5012192;28;20626;-73
2023/05/18 11:13:31;;;;;;;4.60;1.90;;;23.70;1.00;;;;;;5005786;28;20877;-71
2023/05/18 11:16:08;;;;;;;7.33;4.80;;;23.10;1.00;;;;;;5008399;28;20479;-71
2023/05/18 11:18:40;;;;;;;7.03;3.10;;;22.50;1.00;;;;;;5009450;28;20476;-72
2023/05/18 11:21:30;;;;;;;5.57;2.57;;;22.20;1.00;;;;;;5008521;28;20553;-71
2023/05/18 11:24:18;;;;;;;3.10;1.73;;;21.90;1.00;;;;;;5009910;28;20477;-71
2023/05/18 11:26:46;;;;;;;4.00;1.57;;;21.90;1.00;;;;;;5024267;28;20471;-72
2023/05/18 11:29:19;;;;;;;7.00;2.23;;;21.70;1.00;;;;;;5027488;28;20513;-71
2023/05/18 11:31:48;;;;;;;7.00;2.10;;;21.50;1.00;;;;;;5029855;28;20555;-73
2023/05/18 11:34:34;;;;;;;6.57;3.10;;;21.40;1.00;;;;;;5025638;28;20546;-73
2023/05/18 11:37:01;;;;;;;3.47;1.97;;;21.20;1.00;;;;;;5028446;28;20492;-71
2023/05/18 11:39:28;;;;;;;6.43;2.53;;;21.10;1.00;;;;;;5031427;28;20502;-72
2023/05/18 11:42:02;;;;;;;6.33;2.50;;;21.40;1.00;;;;;;5026299;28;20540;-73
2023/05/18 11:44:31;;;;;;;2.70;1.80;;;22.70;1.00;;;;;;5027402;28;20482;-71
2023/05/18 11:47:02;;;;;;;3.60;2.10;;;23.10;1.00;;;;;;5027851;28;20472;-73
2023/05/18 11:49:31;;;;;;;6.27;2.10;;;22.70;1.00;;;;;;5026246;28;20565;-71
2023/05/18 11:52:03;;;;;;;3.97;2.43;;;23.30;1.00;;;;;;5025572;28;20466;-72
2023/05/18 11:54:35;;;;;;;2.63;1.37;;;25.60;1.00;;;;;;5027018;28;20473;-72
2023/05/18 11:57:02;;;;;;;3.47;1.50;;;27.30;1.00;;;;;;5023139;28;20484;-70
2023/05/18 11:59:37;;;;;;;5.80;4.07;;;27.00;1.00;;;;;;5025717;28;20476;-70
2023/05/18 12:02:05;;;;;;;6.23;2.07;;;25.60;1.00;;;;;;5026916;28;20464;-70
2023/05/18 12:04:32;;;;;;;5.03;2.60;;;26.50;1.00;;;;;;5025270;28;20455;-75
2023/05/18 12:07:04;;;;;;;4.30;2.30;;;28.20;1.00;;;;;;5024634;28;20474;-74
2023/05/18 12:09:31;;;;;;;7.30;2.17;;;30.20;1.00;;;;;;5019927;28;20478;-71
2023/05/18 12:11:58;;;;;;;6.10;3.33;;;30.90;1.00;;;;;;5026121;28;20474;-72
2023/05/18 12:14:26;;;;;;;8.90;4.23;;;29.90;1.00;;;;;;5017134;28;20540;-71
2023/05/18 12:16:57;;;;;;;4.13;2.20;;;29.00;1.00;;;;;;5027032;28;20498;-72
2023/05/18 12:19:24;;;;;;;4.90;2.23;;;27.80;1.00;;;;;;5024356;28;20577;-72
2023/05/18 12:21:51;;;;;;;4.33;2.00;;;26.40;1.00;;;;;;5023790;28;20482;-71
2023/05/18 12:24:18;;;;;;;4.73;2.00;;;25.30;1.00;;;;;;5026422;28;20906;-71
2023/05/18 12:26:46;;;;;;;5.37;2.03;;;24.40;1.00;;;;;;5026144;28;20590;-71
2023/05/18 12:29:18;;;;;;;2.83;1.87;;;24.00;1.00;;;;;;5022258;28;20472;-71
2023/05/18 12:31:46;;;;;;;3.97;1.90;;;25.70;1.00;;;;;;5025755;28;20469;-72
2023/05/18 12:34:15;;;;;;;2.60;1.67;;;27.50;1.00;;;;;;5027182;28;20560;-72
2023/05/18 12:36:52;;;;;;;4.20;2.70;;;29.00;1.00;;;;;;5027892;28;20488;-70
2023/05/18 12:39:19;;;;;;;3.07;2.00;;;29.90;1.00;;;;;;5025733;28;20457;-72
2023/05/18 12:41:46;;;;;;;5.63;1.97;;;30.90;1.00;;;;;;5027022;28;20546;-72
2023/05/18 12:44:14;;;;;;;2.20;1.70;;;30.10;1.00;;;;;;5023586;28;20579;-72
2023/05/18 12:46:42;;;;;;;7.07;3.20;;;28.30;1.00;;;;;;5026390;28;20554;-71
2023/05/18 12:49:10;;;;;;;3.60;2.10;;;26.80;1.00;;;;;;5023291;28;20465;-72
2023/05/18 12:51:40;;;;;;;4.70;2.40;;;25.40;1.00;;;;;;5019276;28;20945;-74
2023/05/18 12:54:07;;;;;;;2.40;1.40;;;24.40;1.00;;;;;;5028018;28;20456;-71
2023/05/18 12:56:58;;;;;;;4.93;2.00;;;24.30;1.00;;;;;;5022575;28;20554;-74
2023/05/18 12:59:25;;;;;;;6.63;2.20;;;25.60;1.00;;;;;;5023161;28;20567;-71
2023/05/18 13:01:53;;;;;;;2.80;1.77;;;26.90;1.00;;;;;;5023216;28;20458;-71
2023/05/18 13:04:20;;;;;;;5.57;2.80;;;27.80;1.00;;;;;;5027196;28;20495;-72
2023/05/18 13:06:48;;;;;;;4.23;1.90;;;29.30;1.00;;;;;;5021020;28;21015;-71